sensor_id;sensor_type;location;lat;lon;timestamp;P1;durP1;ratioP1;P2;durP2;ratioP2
53652;SDS011;39553;52.954;5.932;2023-07-13T00:00:28;8.07;;;3.28;;
53652;SDS011;39553;52.954;5.932;2023-07-13T00:02:55;8.80;;;2.22;;
53652;SDS011;39553;52.954;5.932;2023-07-13T00:05:21;8.23;;;2.25;;
53652;SDS011;39553;52.954;5.932;2023-07-13T00:07:48;6.30;;;1.95;;
53652;SDS011;39553;52.954;5.932;2023-07-13T00:10:15;5.03;;;1.92;;
53652;SDS011;39553;52.954;5.932;2023-07-13T00:12:41;8.05;;;2.38;;
53652;SDS011;39553;52.954;5.932;2023-07-13T00:15:10;7.88;;;2.20;;
53652;SDS011;39553;52.954;5.932;2023-07-13T00:17:52;6.57;;;2.25;;
53652;SDS011;39553;52.954;5.932;2023-07-13T00:20:20;5.95;;;1.90;;
53652;SDS011;39553;52.954;5.932;2023-07-13T00:22:47;6.72;;;1.98;;
53652;SDS011;39553;52.954;5.932;2023-07-13T00:25:14;6.18;;;2.03;;
53652;SDS011;39553;52.954;5.932;2023-07-13T00:27:41;5.95;;;1.50;;
53652;SDS011;39553;52.954;5.932;2023-07-13T00:30:09;9.60;;;2.03;;
53652;SDS011;39553;52.954;5.932;2023-07-13T00:32:35;4.70;;;1.67;;
53652;SDS011;39553;52.954;5.932;2023-07-13T00:35:02;2.92;;;1.10;;
53652;SDS011;39553;52.954;5.932;2023-07-13T00:37:29;3.80;;;1.60;;
53652;SDS011;39553;52.954;5.932;2023-07-13T00:39:55;4.88;;;1.20;;
53652;SDS011;39553;52.954;5.932;2023-07-13T00:42:21;4.70;;;1.55;;
53652;SDS011;39553;52.954;5.932;2023-07-13T00:47:37;1.70;;;0.90;;
53652;SDS011;39553;52.954;5.932;2023-07-13T00:50:07;1.77;;;1.20;;
53652;SDS011;39553;52.954;5.932;2023-07-13T00:52:38;4.03;;;1.30;;
53652;SDS011;39553;52.954;5.932;2023-07-13T00:55:07;3.00;;;1.25;;
53652;SDS011;39553;52.954;5.932;2023-07-13T00:57:34;4.75;;;1.65;;
53652;SDS011;39553;52.954;5.932;2023-07-13T01:00:01;3.42;;;1.30;;
53652;SDS011;39553;52.954;5.932;2023-07-13T01:02:32;6.00;;;1.60;;
53652;SDS011;39553;52.954;5.932;2023-07-13T01:04:59;3.47;;;1.35;;
53652;SDS011;39553;52.954;5.932;2023-07-13T01:07:25;8.30;;;1.73;;
53652;SDS011;39553;52.954;5.932;2023-07-13T01:09:51;3.83;;;1.60;;
53652;SDS011;39553;52.954;5.932;2023-07-13T01:12:17;5.22;;;2.17;;
53652;SDS011;39553;52.954;5.932;2023-07-13T01:14:43;6.25;;;1.70;;
53652;SDS011;39553;52.954;5.932;2023-07-13T01:17:09;4.15;;;1.52;;
53652;SDS011;39553;52.954;5.932;2023-07-13T01:19:37;4.57;;;1.50;;
53652;SDS011;39553;52.954;5.932;2023-07-13T01:22:09;4.35;;;1.55;;
53652;SDS011;39553;52.954;5.932;2023-07-13T01:24:38;5.88;;;2.08;;
53652;SDS011;39553;52.954;5.932;2023-07-13T01:27:05;6.03;;;2.05;;
53652;SDS011;39553;52.954;5.932;2023-07-13T01:29:33;5.47;;;1.92;;
53652;SDS011;39553;52.954;5.932;2023-07-13T01:32:06;8.35;;;1.98;;
53652;SDS011;39553;52.954;5.932;2023-07-13T01:34:33;3.63;;;1.95;;
53652;SDS011;39553;52.954;5.932;2023-07-13T01:36:59;7.82;;;1.98;;
53652;SDS011;39553;52.954;5.932;2023-07-13T01:39:24;9.20;;;1.88;;
53652;SDS011;39553;52.954;5.932;2023-07-13T01:41:50;10.00;;;2.33;;
53652;SDS011;39553;52.954;5.932;2023-07-13T01:44:16;12.85;;;3.13;;
53652;SDS011;39553;52.954;5.932;2023-07-13T01:46:42;15.20;;;2.58;;
53652;SDS011;39553;52.954;5.932;2023-07-13T01:49:07;10.30;;;3.10;;
53652;SDS011;39553;52.954;5.932;2023-07-13T01:51:33;11.15;;;2.90;;
53652;SDS011;39553;52.954;5.932;2023-07-13T01:53:59;12.25;;;3.13;;
53652;SDS011;39553;52.954;5.932;2023-07-13T01:56:25;9.15;;;3.00;;
53652;SDS011;39553;52.954;5.932;2023-07-13T01:58:51;10.93;;;3.13;;
53652;SDS011;39553;52.954;5.932;2023-07-13T02:01:17;12.80;;;3.10;;
53652;SDS011;39553;52.954;5.932;2023-07-13T02:03:43;11.68;;;3.20;;
53652;SDS011;39553;52.954;5.932;2023-07-13T02:06:09;10.52;;;2.90;;
53652;SDS011;39553;52.954;5.932;2023-07-13T02:08:34;15.27;;;3.13;;
53652;SDS011;39553;52.954;5.932;2023-07-13T02:11:02;19.50;;;3.55;;
53652;SDS011;39553;52.954;5.932;2023-07-13T02:13:28;11.13;;;3.25;;
53652;SDS011;39553;52.954;5.932;2023-07-13T02:15:54;13.23;;;3.97;;
53652;SDS011;39553;52.954;5.932;2023-07-13T02:18:20;15.02;;;3.88;;
53652;SDS011;39553;52.954;5.932;2023-07-13T02:20:46;16.98;;;4.05;;
53652;SDS011;39553;52.954;5.932;2023-07-13T02:23:11;15.00;;;3.78;;
53652;SDS011;39553;52.954;5.932;2023-07-13T02:25:37;15.65;;;3.80;;
53652;SDS011;39553;52.954;5.932;2023-07-13T02:28:03;12.73;;;3.67;;
53652;SDS011;39553;52.954;5.932;2023-07-13T02:30:29;15.60;;;4.10;;
53652;SDS011;39553;52.954;5.932;2023-07-13T02:32:58;16.48;;;5.35;;
53652;SDS011;39553;52.954;5.932;2023-07-13T02:35:24;17.15;;;3.60;;
53652;SDS011;39553;52.954;5.932;2023-07-13T02:37:50;14.38;;;4.10;;
53652;SDS011;39553;52.954;5.932;2023-07-13T02:40:16;18.40;;;4.07;;
53652;SDS011;39553;52.954;5.932;2023-07-13T02:42:41;18.67;;;4.15;;
53652;SDS011;39553;52.954;5.932;2023-07-13T02:45:07;10.68;;;3.47;;
53652;SDS011;39553;52.954;5.932;2023-07-13T02:47:34;17.15;;;4.32;;
53652;SDS011;39553;52.954;5.932;2023-07-13T02:50:01;20.30;;;4.78;;
53652;SDS011;39553;52.954;5.932;2023-07-13T02:52:27;14.63;;;4.05;;
53652;SDS011;39553;52.954;5.932;2023-07-13T02:54:53;15.15;;;4.22;;
53652;SDS011;39553;52.954;5.932;2023-07-13T02:57:19;15.57;;;3.80;;
53652;SDS011;39553;52.954;5.932;2023-07-13T02:59:45;14.25;;;4.07;;
53652;SDS011;39553;52.954;5.932;2023-07-13T03:02:11;8.68;;;3.47;;
53652;SDS011;39553;52.954;5.932;2023-07-13T03:04:37;10.98;;;3.42;;
53652;SDS011;39553;52.954;5.932;2023-07-13T03:07:03;13.43;;;3.75;;
53652;SDS011;39553;52.954;5.932;2023-07-13T03:09:29;11.30;;;3.45;;
53652;SDS011;39553;52.954;5.932;2023-07-13T03:11:56;12.48;;;3.42;;
53652;SDS011;39553;52.954;5.932;2023-07-13T03:14:22;11.90;;;3.63;;
53652;SDS011;39553;52.954;5.932;2023-07-13T03:16:48;15.00;;;3.58;;
53652;SDS011;39553;52.954;5.932;2023-07-13T03:19:14;13.45;;;3.05;;
53652;SDS011;39553;52.954;5.932;2023-07-13T03:21:40;10.70;;;3.67;;
53652;SDS011;39553;52.954;5.932;2023-07-13T03:24:06;11.13;;;3.15;;
53652;SDS011;39553;52.954;5.932;2023-07-13T03:26:32;7.90;;;2.92;;
53652;SDS011;39553;52.954;5.932;2023-07-13T03:28:58;13.15;;;3.95;;
53652;SDS011;39553;52.954;5.932;2023-07-13T03:31:25;12.77;;;3.38;;
53652;SDS011;39553;52.954;5.932;2023-07-13T03:33:56;10.77;;;3.70;;
53652;SDS011;39553;52.954;5.932;2023-07-13T03:36:23;19.55;;;4.00;;
53652;SDS011;39553;52.954;5.932;2023-07-13T03:38:52;8.90;;;3.05;;
53652;SDS011;39553;52.954;5.932;2023-07-13T03:41:20;8.57;;;2.97;;
53652;SDS011;39553;52.954;5.932;2023-07-13T03:43:47;10.88;;;3.22;;
53652;SDS011;39553;52.954;5.932;2023-07-13T03:46:14;12.25;;;3.40;;
53652;SDS011;39553;52.954;5.932;2023-07-13T03:48:41;13.35;;;2.70;;
53652;SDS011;39553;52.954;5.932;2023-07-13T03:51:09;7.65;;;2.50;;
53652;SDS011;39553;52.954;5.932;2023-07-13T03:53:38;10.73;;;3.10;;
53652;SDS011;39553;52.954;5.932;2023-07-13T03:56:06;8.57;;;2.80;;
53652;SDS011;39553;52.954;5.932;2023-07-13T03:58:33;14.27;;;3.50;;
53652;SDS011;39553;52.954;5.932;2023-07-13T04:01:01;8.20;;;3.10;;
53652;SDS011;39553;52.954;5.932;2023-07-13T04:03:28;12.40;;;3.25;;
53652;SDS011;39553;52.954;5.932;2023-07-13T04:05:55;7.38;;;3.13;;
53652;SDS011;39553;52.954;5.932;2023-07-13T04:08:25;15.02;;;3.50;;
53652;SDS011;39553;52.954;5.932;2023-07-13T04:10:52;10.93;;;3.28;;
53652;SDS011;39553;52.954;5.932;2023-07-13T04:13:17;8.88;;;3.20;;
53652;SDS011;39553;52.954;5.932;2023-07-13T04:15:43;14.05;;;3.50;;
53652;SDS011;39553;52.954;5.932;2023-07-13T04:18:09;8.15;;;2.95;;
53652;SDS011;39553;52.954;5.932;2023-07-13T04:20:35;8.73;;;2.70;;
53652;SDS011;39553;52.954;5.932;2023-07-13T04:23:00;8.23;;;2.53;;
53652;SDS011;39553;52.954;5.932;2023-07-13T04:25:26;12.93;;;3.30;;
53652;SDS011;39553;52.954;5.932;2023-07-13T04:27:53;7.15;;;2.88;;
53652;SDS011;39553;52.954;5.932;2023-07-13T04:30:19;9.02;;;2.92;;
53652;SDS011;39553;52.954;5.932;2023-07-13T04:32:45;10.45;;;2.88;;
53652;SDS011;39553;52.954;5.932;2023-07-13T04:35:12;11.57;;;3.13;;
53652;SDS011;39553;52.954;5.932;2023-07-13T04:37:39;9.27;;;2.28;;
53652;SDS011;39553;52.954;5.932;2023-07-13T04:40:05;4.13;;;2.25;;
53652;SDS011;39553;52.954;5.932;2023-07-13T04:42:35;8.80;;;2.22;;
53652;SDS011;39553;52.954;5.932;2023-07-13T04:45:00;9.25;;;2.95;;
53652;SDS011;39553;52.954;5.932;2023-07-13T04:47:29;6.35;;;2.30;;
53652;SDS011;39553;52.954;5.932;2023-07-13T04:49:55;9.10;;;2.33;;
53652;SDS011;39553;52.954;5.932;2023-07-13T04:52:22;16.83;;;2.90;;
53652;SDS011;39553;52.954;5.932;2023-07-13T04:54:48;8.98;;;2.97;;
53652;SDS011;39553;52.954;5.932;2023-07-13T04:57:14;13.50;;;2.83;;
53652;SDS011;39553;52.954;5.932;2023-07-13T04:59:40;9.60;;;2.65;;
53652;SDS011;39553;52.954;5.932;2023-07-13T05:02:06;5.95;;;2.58;;
53652;SDS011;39553;52.954;5.932;2023-07-13T05:04:32;8.57;;;2.38;;
53652;SDS011;39553;52.954;5.932;2023-07-13T05:06:58;8.35;;;2.67;;
53652;SDS011;39553;52.954;5.932;2023-07-13T05:09:24;7.63;;;2.20;;
53652;SDS011;39553;52.954;5.932;2023-07-13T05:11:50;14.23;;;3.05;;
53652;SDS011;39553;52.954;5.932;2023-07-13T05:14:16;8.18;;;2.40;;
53652;SDS011;39553;52.954;5.932;2023-07-13T05:16:42;11.65;;;2.35;;
53652;SDS011;39553;52.954;5.932;2023-07-13T05:19:08;11.30;;;2.92;;
53652;SDS011;39553;52.954;5.932;2023-07-13T05:21:34;10.70;;;2.28;;
53652;SDS011;39553;52.954;5.932;2023-07-13T05:24:00;7.88;;;2.40;;
53652;SDS011;39553;52.954;5.932;2023-07-13T05:26:26;18.55;;;3.92;;
53652;SDS011;39553;52.954;5.932;2023-07-13T05:28:52;8.23;;;2.30;;
53652;SDS011;39553;52.954;5.932;2023-07-13T05:31:17;6.88;;;2.75;;
53652;SDS011;39553;52.954;5.932;2023-07-13T05:33:43;12.20;;;2.78;;
53652;SDS011;39553;52.954;5.932;2023-07-13T05:36:09;11.68;;;2.65;;
53652;SDS011;39553;52.954;5.932;2023-07-13T05:38:35;10.02;;;3.10;;
53652;SDS011;39553;52.954;5.932;2023-07-13T05:41:01;15.27;;;3.58;;
53652;SDS011;39553;52.954;5.932;2023-07-13T05:43:26;11.93;;;3.33;;
53652;SDS011;39553;52.954;5.932;2023-07-13T05:45:53;13.43;;;2.50;;
53652;SDS011;39553;52.954;5.932;2023-07-13T05:48:20;11.27;;;3.17;;
53652;SDS011;39553;52.954;5.932;2023-07-13T05:50:45;8.30;;;2.80;;
53652;SDS011;39553;52.954;5.932;2023-07-13T05:53:11;11.82;;;2.95;;
53652;SDS011;39553;52.954;5.932;2023-07-13T05:55:41;16.00;;;2.90;;
53652;SDS011;39553;52.954;5.932;2023-07-13T05:58:08;5.45;;;2.20;;
53652;SDS011;39553;52.954;5.932;2023-07-13T06:00:34;7.82;;;2.58;;
53652;SDS011;39553;52.954;5.932;2023-07-13T06:03:00;13.18;;;2.50;;
53652;SDS011;39553;52.954;5.932;2023-07-13T06:05:26;10.00;;;2.90;;
53652;SDS011;39553;52.954;5.932;2023-07-13T06:07:54;8.48;;;2.22;;
53652;SDS011;39553;52.954;5.932;2023-07-13T06:10:20;8.65;;;2.50;;
53652;SDS011;39553;52.954;5.932;2023-07-13T06:12:46;5.75;;;2.38;;
53652;SDS011;39553;52.954;5.932;2023-07-13T06:15:11;7.70;;;2.35;;
53652;SDS011;39553;52.954;5.932;2023-07-13T06:17:37;7.07;;;2.33;;
53652;SDS011;39553;52.954;5.932;2023-07-13T06:20:03;7.60;;;2.40;;
53652;SDS011;39553;52.954;5.932;2023-07-13T06:22:29;7.95;;;3.10;;
53652;SDS011;39553;52.954;5.932;2023-07-13T06:24:55;8.65;;;2.60;;
53652;SDS011;39553;52.954;5.932;2023-07-13T06:27:20;7.75;;;2.47;;
53652;SDS011;39553;52.954;5.932;2023-07-13T06:29:46;7.57;;;2.20;;
53652;SDS011;39553;52.954;5.932;2023-07-13T06:32:12;12.50;;;3.35;;
53652;SDS011;39553;52.954;5.932;2023-07-13T06:34:38;9.70;;;2.40;;
53652;SDS011;39553;52.954;5.932;2023-07-13T06:37:03;6.30;;;2.47;;
53652;SDS011;39553;52.954;5.932;2023-07-13T06:39:29;8.77;;;2.47;;
53652;SDS011;39553;52.954;5.932;2023-07-13T06:41:55;7.47;;;2.63;;
53652;SDS011;39553;52.954;5.932;2023-07-13T06:44:21;7.70;;;2.53;;
53652;SDS011;39553;52.954;5.932;2023-07-13T06:46:46;8.52;;;2.50;;
53652;SDS011;39553;52.954;5.932;2023-07-13T06:49:12;6.43;;;1.98;;
53652;SDS011;39553;52.954;5.932;2023-07-13T06:51:38;5.82;;;2.10;;
53652;SDS011;39553;52.954;5.932;2023-07-13T06:54:04;4.35;;;2.28;;
53652;SDS011;39553;52.954;5.932;2023-07-13T06:56:29;12.38;;;2.03;;
53652;SDS011;39553;52.954;5.932;2023-07-13T06:58:55;5.57;;;2.08;;
53652;SDS011;39553;52.954;5.932;2023-07-13T07:01:21;9.93;;;2.25;;
53652;SDS011;39553;52.954;5.932;2023-07-13T07:03:47;5.93;;;1.80;;
53652;SDS011;39553;52.954;5.932;2023-07-13T07:06:15;6.45;;;1.92;;
53652;SDS011;39553;52.954;5.932;2023-07-13T07:08:42;6.80;;;2.13;;
53652;SDS011;39553;52.954;5.932;2023-07-13T07:11:16;5.97;;;2.10;;
53652;SDS011;39553;52.954;5.932;2023-07-13T07:16:10;7.45;;;2.13;;
53652;SDS011;39553;52.954;5.932;2023-07-13T07:18:36;3.45;;;1.90;;
53652;SDS011;39553;52.954;5.932;2023-07-13T07:21:02;4.07;;;1.83;;
53652;SDS011;39553;52.954;5.932;2023-07-13T07:23:29;9.35;;;2.15;;
53652;SDS011;39553;52.954;5.932;2023-07-13T07:25:55;6.72;;;1.92;;
53652;SDS011;39553;52.954;5.932;2023-07-13T07:28:21;10.40;;;2.03;;
53652;SDS011;39553;52.954;5.932;2023-07-13T07:30:47;6.55;;;2.38;;
53652;SDS011;39553;52.954;5.932;2023-07-13T07:33:13;6.85;;;2.17;;
53652;SDS011;39553;52.954;5.932;2023-07-13T07:35:39;7.30;;;2.13;;
53652;SDS011;39553;52.954;5.932;2023-07-13T07:38:05;9.05;;;2.30;;
53652;SDS011;39553;52.954;5.932;2023-07-13T07:40:32;10.80;;;2.13;;
53652;SDS011;39553;52.954;5.932;2023-07-13T07:43:02;7.07;;;2.13;;
53652;SDS011;39553;52.954;5.932;2023-07-13T07:45:28;11.52;;;2.65;;
53652;SDS011;39553;52.954;5.932;2023-07-13T07:47:54;12.30;;;3.30;;
53652;SDS011;39553;52.954;5.932;2023-07-13T07:50:24;8.85;;;2.33;;
53652;SDS011;39553;52.954;5.932;2023-07-13T07:52:50;6.78;;;2.38;;
53652;SDS011;39553;52.954;5.932;2023-07-13T07:55:16;9.07;;;2.63;;
53652;SDS011;39553;52.954;5.932;2023-07-13T07:57:42;8.27;;;1.92;;
53652;SDS011;39553;52.954;5.932;2023-07-13T08:00:08;4.13;;;1.88;;
53652;SDS011;39553;52.954;5.932;2023-07-13T08:02:35;4.75;;;2.08;;
53652;SDS011;39553;52.954;5.932;2023-07-13T08:05:00;5.15;;;2.17;;
53652;SDS011;39553;52.954;5.932;2023-07-13T08:07:26;6.40;;;2.15;;
53652;SDS011;39553;52.954;5.932;2023-07-13T08:09:52;5.05;;;2.20;;
53652;SDS011;39553;52.954;5.932;2023-07-13T08:12:19;6.88;;;1.70;;
53652;SDS011;39553;52.954;5.932;2023-07-13T08:14:45;6.60;;;2.33;;
53652;SDS011;39553;52.954;5.932;2023-07-13T08:17:14;5.07;;;2.10;;
53652;SDS011;39553;52.954;5.932;2023-07-13T08:19:40;7.65;;;2.35;;
53652;SDS011;39553;52.954;5.932;2023-07-13T08:22:05;6.28;;;2.20;;
53652;SDS011;39553;52.954;5.932;2023-07-13T08:24:31;3.47;;;1.58;;
53652;SDS011;39553;52.954;5.932;2023-07-13T08:26:57;6.38;;;2.03;;
53652;SDS011;39553;52.954;5.932;2023-07-13T08:29:23;4.22;;;2.15;;
53652;SDS011;39553;52.954;5.932;2023-07-13T08:31:48;3.65;;;1.23;;
53652;SDS011;39553;52.954;5.932;2023-07-13T08:34:15;3.08;;;1.50;;
53652;SDS011;39553;52.954;5.932;2023-07-13T08:36:41;8.20;;;2.00;;
53652;SDS011;39553;52.954;5.932;2023-07-13T08:39:06;4.03;;;1.42;;
53652;SDS011;39553;52.954;5.932;2023-07-13T08:41:32;4.18;;;1.70;;
53652;SDS011;39553;52.954;5.932;2023-07-13T08:43:59;4.75;;;1.52;;
53652;SDS011;39553;52.954;5.932;2023-07-13T08:48:56;4.72;;;1.35;;
53652;SDS011;39553;52.954;5.932;2023-07-13T08:51:33;3.78;;;1.90;;
53652;SDS011;39553;52.954;5.932;2023-07-13T08:54:16;3.22;;;1.80;;
53652;SDS011;39553;52.954;5.932;2023-07-13T08:56:48;6.47;;;1.73;;
53652;SDS011;39553;52.954;5.932;2023-07-13T08:59:18;7.82;;;2.40;;
53652;SDS011;39553;52.954;5.932;2023-07-13T09:02:04;3.50;;;1.75;;
53652;SDS011;39553;52.954;5.932;2023-07-13T09:04:45;3.17;;;1.88;;
53652;SDS011;39553;52.954;5.932;2023-07-13T09:09:52;6.70;;;1.98;;
53652;SDS011;39553;52.954;5.932;2023-07-13T09:12:34;4.78;;;1.73;;
53652;SDS011;39553;52.954;5.932;2023-07-13T09:15:29;5.43;;;1.80;;
53652;SDS011;39553;52.954;5.932;2023-07-13T09:21:00;9.10;;;2.35;;
53652;SDS011;39553;52.954;5.932;2023-07-13T09:23:28;7.05;;;2.55;;
53652;SDS011;39553;52.954;5.932;2023-07-13T09:25:59;4.55;;;2.13;;
53652;SDS011;39553;52.954;5.932;2023-07-13T09:28:43;7.18;;;2.22;;
53652;SDS011;39553;52.954;5.932;2023-07-13T09:33:39;4.75;;;1.90;;
53652;SDS011;39553;52.954;5.932;2023-07-13T09:38:52;3.35;;;2.05;;
53652;SDS011;39553;52.954;5.932;2023-07-13T09:44:26;7.18;;;2.03;;
53652;SDS011;39553;52.954;5.932;2023-07-13T09:47:00;5.30;;;2.00;;
53652;SDS011;39553;52.954;5.932;2023-07-13T09:49:28;4.65;;;1.63;;
53652;SDS011;39553;52.954;5.932;2023-07-13T09:52:06;5.68;;;1.80;;
53652;SDS011;39553;52.954;5.932;2023-07-13T09:54:35;4.68;;;1.95;;
53652;SDS011;39553;52.954;5.932;2023-07-13T09:57:03;4.43;;;1.58;;
53652;SDS011;39553;52.954;5.932;2023-07-13T09:59:39;6.32;;;1.55;;
53652;SDS011;39553;52.954;5.932;2023-07-13T10:02:24;6.45;;;1.85;;
53652;SDS011;39553;52.954;5.932;2023-07-13T10:04:59;5.53;;;1.75;;
53652;SDS011;39553;52.954;5.932;2023-07-13T10:07:30;4.63;;;1.80;;
53652;SDS011;39553;52.954;5.932;2023-07-13T10:09:57;3.55;;;1.50;;
53652;SDS011;39553;52.954;5.932;2023-07-13T10:12:28;8.25;;;1.85;;
53652;SDS011;39553;52.954;5.932;2023-07-13T10:15:00;3.85;;;1.65;;
53652;SDS011;39553;52.954;5.932;2023-07-13T10:17:30;8.18;;;1.80;;
53652;SDS011;39553;52.954;5.932;2023-07-13T10:20:02;4.55;;;1.58;;
53652;SDS011;39553;52.954;5.932;2023-07-13T10:25:30;6.35;;;1.80;;
53652;SDS011;39553;52.954;5.932;2023-07-13T10:28:06;4.50;;;1.83;;
53652;SDS011;39553;52.954;5.932;2023-07-13T10:30:48;4.38;;;1.83;;
53652;SDS011;39553;52.954;5.932;2023-07-13T10:33:16;3.75;;;1.65;;
53652;SDS011;39553;52.954;5.932;2023-07-13T10:35:43;3.70;;;1.92;;
53652;SDS011;39553;52.954;5.932;2023-07-13T10:38:16;4.30;;;1.50;;
53652;SDS011;39553;52.954;5.932;2023-07-13T10:43:28;5.18;;;1.50;;
53652;SDS011;39553;52.954;5.932;2023-07-13T10:46:02;5.88;;;1.88;;
53652;SDS011;39553;52.954;5.932;2023-07-13T10:48:31;5.03;;;1.65;;
53652;SDS011;39553;52.954;5.932;2023-07-13T10:50:59;4.88;;;1.67;;
53652;SDS011;39553;52.954;5.932;2023-07-13T10:53:30;3.60;;;1.30;;
53652;SDS011;39553;52.954;5.932;2023-07-13T10:56:02;3.65;;;1.63;;
53652;SDS011;39553;52.954;5.932;2023-07-13T10:58:40;3.50;;;1.58;;
53652;SDS011;39553;52.954;5.932;2023-07-13T11:01:16;6.38;;;1.60;;
53652;SDS011;39553;52.954;5.932;2023-07-13T11:08:54;6.53;;;1.80;;
53652;SDS011;39553;52.954;5.932;2023-07-13T11:18:48;4.65;;;1.92;;
53652;SDS011;39553;52.954;5.932;2023-07-13T11:21:33;3.67;;;1.73;;
53652;SDS011;39553;52.954;5.932;2023-07-13T11:24:03;5.93;;;2.03;;
53652;SDS011;39553;52.954;5.932;2023-07-13T11:26:40;3.97;;;1.77;;
53652;SDS011;39553;52.954;5.932;2023-07-13T11:29:31;5.55;;;1.85;;
53652;SDS011;39553;52.954;5.932;2023-07-13T11:32:22;7.10;;;2.00;;
53652;SDS011;39553;52.954;5.932;2023-07-13T11:34:51;5.45;;;1.70;;
53652;SDS011;39553;52.954;5.932;2023-07-13T11:37:19;6.00;;;1.67;;
53652;SDS011;39553;52.954;5.932;2023-07-13T11:39:48;4.85;;;1.98;;
53652;SDS011;39553;52.954;5.932;2023-07-13T11:42:17;5.03;;;1.52;;
53652;SDS011;39553;52.954;5.932;2023-07-13T11:44:46;6.20;;;1.73;;
53652;SDS011;39553;52.954;5.932;2023-07-13T11:47:17;5.13;;;1.77;;
53652;SDS011;39553;52.954;5.932;2023-07-13T11:49:48;3.72;;;1.50;;
53652;SDS011;39553;52.954;5.932;2023-07-13T11:52:19;2.92;;;1.58;;
53652;SDS011;39553;52.954;5.932;2023-07-13T11:55:01;7.68;;;2.03;;
53652;SDS011;39553;52.954;5.932;2023-07-13T11:57:30;3.85;;;1.30;;
53652;SDS011;39553;52.954;5.932;2023-07-13T12:00:03;4.30;;;1.70;;
53652;SDS011;39553;52.954;5.932;2023-07-13T12:02:37;4.90;;;1.80;;
53652;SDS011;39553;52.954;5.932;2023-07-13T12:05:05;4.55;;;1.92;;
53652;SDS011;39553;52.954;5.932;2023-07-13T12:07:35;5.82;;;1.25;;
53652;SDS011;39553;52.954;5.932;2023-07-13T12:12:48;9.15;;;2.08;;
53652;SDS011;39553;52.954;5.932;2023-07-13T12:15:18;4.70;;;2.10;;
53652;SDS011;39553;52.954;5.932;2023-07-13T12:17:45;4.68;;;1.60;;
53652;SDS011;39553;52.954;5.932;2023-07-13T12:20:17;4.65;;;1.80;;
53652;SDS011;39553;52.954;5.932;2023-07-13T12:22:47;4.55;;;1.60;;
53652;SDS011;39553;52.954;5.932;2023-07-13T12:25:14;4.22;;;1.40;;
53652;SDS011;39553;52.954;5.932;2023-07-13T12:27:41;3.42;;;1.63;;
53652;SDS011;39553;52.954;5.932;2023-07-13T12:33:00;3.80;;;1.30;;
53652;SDS011;39553;52.954;5.932;2023-07-13T12:35:38;5.43;;;1.90;;
53652;SDS011;39553;52.954;5.932;2023-07-13T12:38:11;4.00;;;1.60;;
53652;SDS011;39553;52.954;5.932;2023-07-13T12:40:37;4.30;;;1.85;;
53652;SDS011;39553;52.954;5.932;2023-07-13T12:43:05;3.53;;;1.70;;
53652;SDS011;39553;52.954;5.932;2023-07-13T12:45:37;5.18;;;1.50;;
53652;SDS011;39553;52.954;5.932;2023-07-13T12:50:37;4.82;;;1.85;;
53652;SDS011;39553;52.954;5.932;2023-07-13T12:53:06;8.30;;;2.35;;
53652;SDS011;39553;52.954;5.932;2023-07-13T12:55:43;6.70;;;1.88;;
53652;SDS011;39553;52.954;5.932;2023-07-13T12:58:24;2.30;;;1.40;;
53652;SDS011;39553;52.954;5.932;2023-07-13T13:00:50;4.55;;;1.75;;
53652;SDS011;39553;52.954;5.932;2023-07-13T13:06:01;4.57;;;1.60;;
53652;SDS011;39553;52.954;5.932;2023-07-13T13:08:47;9.52;;;2.63;;
53652;SDS011;39553;52.954;5.932;2023-07-13T13:11:18;6.00;;;1.63;;
53652;SDS011;39553;52.954;5.932;2023-07-13T13:13:45;4.47;;;1.70;;
53652;SDS011;39553;52.954;5.932;2023-07-13T13:16:12;3.67;;;1.40;;
53652;SDS011;39553;52.954;5.932;2023-07-13T13:18:50;5.10;;;1.50;;
53652;SDS011;39553;52.954;5.932;2023-07-13T13:21:17;3.20;;;1.33;;
53652;SDS011;39553;52.954;5.932;2023-07-13T13:23:44;5.47;;;2.10;;
53652;SDS011;39553;52.954;5.932;2023-07-13T13:26:12;9.52;;;2.30;;
53652;SDS011;39553;52.954;5.932;2023-07-13T13:28:43;2.97;;;1.35;;
53652;SDS011;39553;52.954;5.932;2023-07-13T13:31:13;4.70;;;2.00;;
53652;SDS011;39553;52.954;5.932;2023-07-13T13:33:40;3.75;;;1.52;;
53652;SDS011;39553;52.954;5.932;2023-07-13T13:36:12;5.40;;;2.10;;
53652;SDS011;39553;52.954;5.932;2023-07-13T13:38:41;6.68;;;2.10;;
53652;SDS011;39553;52.954;5.932;2023-07-13T13:41:08;4.25;;;2.22;;
53652;SDS011;39553;52.954;5.932;2023-07-13T13:43:36;5.60;;;1.73;;
53652;SDS011;39553;52.954;5.932;2023-07-13T13:46:02;6.05;;;2.10;;
53652;SDS011;39553;52.954;5.932;2023-07-13T13:48:44;11.32;;;2.42;;
53652;SDS011;39553;52.954;5.932;2023-07-13T13:53:41;4.97;;;1.88;;
53652;SDS011;39553;52.954;5.932;2023-07-13T13:56:07;4.55;;;1.60;;
53652;SDS011;39553;52.954;5.932;2023-07-13T13:58:33;4.35;;;2.05;;
53652;SDS011;39553;52.954;5.932;2023-07-13T14:00:59;8.07;;;2.00;;
53652;SDS011;39553;52.954;5.932;2023-07-13T14:03:26;6.38;;;2.13;;
53652;SDS011;39553;52.954;5.932;2023-07-13T14:05:53;5.93;;;2.03;;
53652;SDS011;39553;52.954;5.932;2023-07-13T14:08:20;7.40;;;2.25;;
53652;SDS011;39553;52.954;5.932;2023-07-13T14:10:47;5.68;;;2.10;;
53652;SDS011;39553;52.954;5.932;2023-07-13T14:13:16;4.40;;;1.60;;
53652;SDS011;39553;52.954;5.932;2023-07-13T14:15:53;9.38;;;2.50;;
53652;SDS011;39553;52.954;5.932;2023-07-13T14:18:19;5.55;;;1.80;;
53652;SDS011;39553;52.954;5.932;2023-07-13T14:20:46;7.93;;;1.77;;
53652;SDS011;39553;52.954;5.932;2023-07-13T14:23:16;5.65;;;2.05;;
53652;SDS011;39553;52.954;5.932;2023-07-13T14:25:43;6.45;;;2.15;;
53652;SDS011;39553;52.954;5.932;2023-07-13T14:28:21;4.93;;;2.15;;
53652;SDS011;39553;52.954;5.932;2023-07-13T14:30:49;6.88;;;2.13;;
53652;SDS011;39553;52.954;5.932;2023-07-13T14:33:16;7.05;;;2.65;;
53652;SDS011;39553;52.954;5.932;2023-07-13T14:35:42;9.38;;;2.72;;
53652;SDS011;39553;52.954;5.932;2023-07-13T14:38:17;6.32;;;1.98;;
53652;SDS011;39553;52.954;5.932;2023-07-13T14:40:45;6.78;;;2.20;;
53652;SDS011;39553;52.954;5.932;2023-07-13T14:43:12;7.43;;;2.40;;
53652;SDS011;39553;52.954;5.932;2023-07-13T14:45:41;8.68;;;2.38;;
53652;SDS011;39553;52.954;5.932;2023-07-13T14:48:22;8.43;;;2.72;;
53652;SDS011;39553;52.954;5.932;2023-07-13T14:50:56;4.53;;;2.38;;
53652;SDS011;39553;52.954;5.932;2023-07-13T14:55:55;5.63;;;2.80;;
53652;SDS011;39553;52.954;5.932;2023-07-13T14:58:21;4.10;;;2.30;;
53652;SDS011;39553;52.954;5.932;2023-07-13T15:00:47;4.85;;;2.25;;
53652;SDS011;39553;52.954;5.932;2023-07-13T15:03:20;8.40;;;2.60;;
53652;SDS011;39553;52.954;5.932;2023-07-13T15:05:49;7.53;;;2.65;;
53652;SDS011;39553;52.954;5.932;2023-07-13T15:08:16;6.55;;;2.50;;
53652;SDS011;39553;52.954;5.932;2023-07-13T15:10:42;5.95;;;3.10;;
53652;SDS011;39553;52.954;5.932;2023-07-13T15:13:18;5.20;;;2.00;;
53652;SDS011;39553;52.954;5.932;2023-07-13T15:15:46;4.93;;;2.13;;
53652;SDS011;39553;52.954;5.932;2023-07-13T15:18:14;4.22;;;2.88;;
53652;SDS011;39553;52.954;5.932;2023-07-13T15:20:42;9.27;;;2.17;;
53652;SDS011;39553;52.954;5.932;2023-07-13T15:23:10;7.32;;;2.05;;
53652;SDS011;39553;52.954;5.932;2023-07-13T15:25:36;3.17;;;2.08;;
53652;SDS011;39553;52.954;5.932;2023-07-13T15:28:03;8.82;;;2.65;;
53652;SDS011;39553;52.954;5.932;2023-07-13T15:30:31;8.00;;;2.20;;
53652;SDS011;39553;52.954;5.932;2023-07-13T15:33:21;10.20;;;2.33;;
53652;SDS011;39553;52.954;5.932;2023-07-13T15:35:50;7.47;;;2.50;;
53652;SDS011;39553;52.954;5.932;2023-07-13T15:38:23;4.65;;;2.17;;
53652;SDS011;39553;52.954;5.932;2023-07-13T15:40:58;10.52;;;2.45;;
53652;SDS011;39553;52.954;5.932;2023-07-13T15:43:25;8.52;;;2.05;;
53652;SDS011;39553;52.954;5.932;2023-07-13T15:45:51;6.05;;;3.13;;
53652;SDS011;39553;52.954;5.932;2023-07-13T15:48:18;6.32;;;2.28;;